Time;durP1;ratioP1;P1;durP2;ratioP2;P2;SDS_P1;SDS_P2;PMS_P1;PMS_P2;Temp;Humidity;BMP_temperature;BMP_pressure;BME280_temperature;BME280_humidity;BME280_pressure;Samples;Min_cycle;Max_cycle;Signal;HPM_P1;HPM_P2
2023/05/01 00:00:06;;;;;;;;;;;22.50;58.10;;;;;;1512728;77;1428;-76
2023/05/01 00:02:08;;;;;;;;;;;22.40;58.40;;;;;;1513728;77;793;-75
2023/05/01 00:04:10;;;;;;;;;;;22.40;58.10;;;;;;1519169;77;761;-75
2023/05/01 00:06:12;;;;;;;;;;;22.30;58.30;;;;;;1503115;77;739;-76
2023/05/01 00:08:14;;;;;;;;;;;22.40;58.40;;;;;;1513063;77;1949;-76
2023/05/01 00:10:17;;;;;;;;;;;22.30;58.90;;;;;;1504488;77;805;-75
2023/05/01 00:12:19;;;;;;;;;;;22.30;58.40;;;;;;1512382;77;784;-75
2023/05/01 00:14:21;;;;;;;;;;;22.30;58.90;;;;;;1510599;77;1401;-77
2023/05/01 00:16:23;;;;;;;;;;;22.30;58.50;;;;;;1507300;77;720;-75
2023/05/01 00:18:24;;;;;;;;;;;22.40;58.90;;;;;;1506765;77;1206;-75
2023/05/01 00:20:29;;;;;;;;;;;22.30;58.50;;;;;;1511958;77;768;-76
2023/05/01 00:22:31;;;;;;;;;;;22.30;59.00;;;;;;1508152;77;730;-73
2023/05/01 00:24:33;;;;;;;;;;;22.30;58.90;;;;;;1514258;77;729;-76
2023/05/01 00:26:35;;;;;;;;;;;22.40;58.90;;;;;;1506856;77;1943;-75
2023/05/01 00:28:37;;;;;;;;;;;22.40;58.90;;;;;;1496092;77;1486;-77
2023/05/01 00:30:39;;;;;;;;;;;22.40;59.00;;;;;;1500902;77;771;-78
2023/05/01 00:32:41;;;;;;;;;;;22.40;59.00;;;;;;1508042;77;666;-76
2023/05/01 00:34:44;;;;;;;;;;;22.30;59.10;;;;;;1508071;77;755;-76
2023/05/01 00:36:46;;;;;;;;;;;22.30;59.00;;;;;;1508397;77;749;-77
2023/05/01 00:38:48;;;;;;;;;;;22.40;59.10;;;;;;1514842;76;1177;-78
2023/05/01 00:40:50;;;;;;;;;;;22.40;59.00;;;;;;1506704;77;766;-78
2023/05/01 00:42:52;;;;;;;;;;;22.30;58.90;;;;;;1512098;77;1464;-78
2023/05/01 00:44:54;;;;;;;;;;;22.40;58.50;;;;;;1514850;77;690;-78
2023/05/01 00:46:58;;;;;;;;;;;22.30;58.90;;;;;;1515053;77;1925;-76
2023/05/01 00:49:00;;;;;;;;;;;22.40;58.50;;;;;;1500918;77;1226;-77
2023/05/01 00:51:02;;;;;;;;;;;22.40;58.40;;;;;;1505516;77;856;-80
2023/05/01 00:53:04;;;;;;;;;;;22.30;58.80;;;;;;1519428;77;800;-81
2023/05/01 00:55:06;;;;;;;;;;;22.40;58.50;;;;;;1515376;77;750;-78
2023/05/01 00:57:09;;;;;;;;;;;22.30;58.40;;;;;;1522511;77;1597;-78
2023/05/01 00:59:11;;;;;;;;;;;22.40;58.90;;;;;;1508207;77;1169;-81
2023/05/01 01:01:13;;;;;;;;;;;22.30;58.50;;;;;;1500258;77;777;-79
2023/05/01 01:03:15;;;;;;;;;;;22.40;58.20;;;;;;1512923;77;758;-79
2023/05/01 01:05:17;;;;;;;;;;;22.40;58.20;;;;;;1508264;77;746;-78
2023/05/01 01:07:37;;;;;;;;;;;22.40;58.10;;;;;;1503738;77;1937;-79
2023/05/01 01:09:49;;;;;;;;;;;22.40;58.00;;;;;;1511507;77;1509;-78
2023/05/01 01:11:58;;;;;;;;;;;22.40;58.10;;;;;;1505410;77;682;-74
2023/05/01 01:14:02;;;;;;;;;;;22.40;58.10;;;;;;1512198;77;728;-78
2023/05/01 01:16:24;;;;;;;;;;;22.40;58.20;;;;;;1509985;77;1080;-76
2023/05/01 01:18:27;;;;;;;;;;;22.30;58.30;;;;;;1457773;80;1166;-74
2023/05/01 01:20:43;;;;;;;;;;;22.30;58.20;;;;;;1446861;79;1006;-76
2023/05/01 01:22:49;;;;;;;;;;;22.30;58.10;;;;;;1443622;79;664;-79
2023/05/01 01:24:58;;;;;;;;;;;22.30;58.40;;;;;;1513866;77;1508;-78
2023/05/01 01:27:01;;;;;;;;;;;22.40;58.10;;;;;;1502930;77;1938;-74
2023/05/01 01:29:05;;;;;;;;;;;22.40;58.20;;;;;;1512905;77;1187;-82
2023/05/01 01:31:11;;;;;;;;;;;22.30;58.30;;;;;;1503450;77;2079;-78
2023/05/01 01:33:24;;;;;;;;;;;22.40;58.20;;;;;;1502062;77;1048;-77
2023/05/01 01:35:26;;;;;;;;;;;22.30;58.20;;;;;;1512473;77;843;-78
2023/05/01 01:37:32;;;;;;;;;;;22.30;58.30;;;;;;1500852;77;1402;-79
2023/05/01 01:39:42;;;;;;;;;;;22.30;58.50;;;;;;1516340;77;1138;-81
2023/05/01 01:41:44;;;;;;;;;;;22.30;58.40;;;;;;1515522;77;1184;-79
2023/05/01 01:43:49;;;;;;;;;;;22.30;58.30;;;;;;1512243;77;792;-79
2023/05/01 01:45:53;;;;;;;;;;;22.40;58.30;;;;;;1502327;77;1120;-81
2023/05/01 01:47:54;;;;;;;;;;;22.30;58.40;;;;;;1506652;77;1954;-78
2023/05/01 01:49:56;;;;;;;;;;;22.40;58.40;;;;;;1517425;77;792;-80
2023/05/01 01:51:58;;;;;;;;;;;22.30;58.40;;;;;;1510855;77;1449;-81
2023/05/01 01:54:00;;;;;;;;;;;22.40;58.20;;;;;;1515018;77;756;-80
2023/05/01 01:56:03;;;;;;;;;;;22.40;58.10;;;;;;1503897;77;746;-81
2023/05/01 01:58:05;;;;;;;;;;;22.30;58.10;;;;;;1514003;77;1154;-80
2023/05/01 02:00:09;;;;;;;;;;;22.40;58.00;;;;;;1513545;77;774;-74
2023/05/01 02:02:11;;;;;;;;;;;22.40;58.10;;;;;;1507664;77;870;-68
2023/05/01 02:04:13;;;;;;;;;;;22.30;59.00;;;;;;1504744;77;817;-79
2023/05/01 02:06:15;;;;;;;;;;;22.30;59.70;;;;;;1514860;77;1351;-78
2023/05/01 02:08:17;;;;;;;;;;;22.40;59.30;;;;;;1510240;77;1945;-79
2023/05/01 02:10:18;;;;;;;;;;;22.30;59.30;;;;;;1503419;77;771;-80
2023/05/01 02:12:21;;;;;;;;;;;22.40;59.00;;;;;;1512480;77;736;-81
2023/05/01 02:14:24;;;;;;;;;;;22.40;58.90;;;;;;1515108;77;757;-83
2023/05/01 02:16:26;;;;;;;;;;;22.40;58.90;;;;;;1504951;77;781;-80
2023/05/01 02:18:28;;;;;;;;;;;22.40;59.00;;;;;;1505558;77;1202;-80
2023/05/01 02:20:30;;;;;;;;;;;22.40;59.00;;;;;;1505951;77;1444;-80
2023/05/01 02:22:32;;;;;;;;;;;22.30;59.10;;;;;;1504764;77;652;-81
2023/05/01 02:24:34;;;;;;;;;;;22.30;59.10;;;;;;1506906;77;785;-81
2023/05/01 02:26:37;;;;;;;;;;;22.50;58.90;;;;;;1508467;77;643;-79
2023/05/01 02:28:40;;;;;;;;;;;22.50;58.50;;;;;;1509005;77;1946;-80
2023/05/01 02:30:42;;;;;;;;;;;22.50;58.40;;;;;;1506252;77;757;-77
2023/05/01 02:32:44;;;;;;;;;;;22.50;58.30;;;;;;1496660;77;766;-81
2023/05/01 02:34:45;;;;;;;;;;;22.50;58.20;;;;;;1504374;77;1471;-80
2023/05/01 02:36:48;;;;;;;;;;;22.50;58.20;;;;;;1514032;77;745;-79
2023/05/01 02:38:50;;;;;;;;;;;22.50;58.10;;;;;;1528745;76;1168;-79
2023/05/01 02:40:53;;;;;;;;;;;22.60;58.10;;;;;;1514239;77;800;-81
2023/05/01 02:42:55;;;;;;;;;;;22.60;58.10;;;;;;1521241;77;781;-80
2023/05/01 02:44:57;;;;;;;;;;;22.60;58.00;;;;;;1515624;77;792;-78
2023/05/01 02:46:59;;;;;;;;;;;22.60;58.10;;;;;;1508704;77;793;-80
2023/05/01 02:49:01;;;;;;;;;;;22.60;58.10;;;;;;1515171;77;1949;-80
2023/05/01 02:51:03;;;;;;;;;;;22.50;58.10;;;;;;1509848;77;774;-80
2023/05/01 02:53:05;;;;;;;;;;;22.50;58.20;;;;;;1497325;77;749;-81
2023/05/01 02:55:07;;;;;;;;;;;22.50;58.10;;;;;;1515844;77;666;-80
2023/05/01 02:57:09;;;;;;;;;;;22.50;58.30;;;;;;1509582;77;743;-82
2023/05/01 02:59:11;;;;;;;;;;;22.50;58.30;;;;;;1511570;77;1211;-81
2023/05/01 03:01:13;;;;;;;;;;;22.50;58.30;;;;;;1500833;77;777;-82
2023/05/01 03:03:15;;;;;;;;;;;22.50;58.20;;;;;;1509123;77;1409;-82
2023/05/01 03:05:18;;;;;;;;;;;22.50;58.10;;;;;;1513957;77;655;-80
2023/05/01 03:07:20;;;;;;;;;;;22.50;58.10;;;;;;1511991;77;758;-78
2023/05/01 03:09:22;;;;;;;;;;;22.50;58.10;;;;;;1506184;77;1945;-78
2023/05/01 03:11:24;;;;;;;;;;;22.50;58.20;;;;;;1516158;77;747;-79
2023/05/01 03:13:26;;;;;;;;;;;22.50;58.40;;;;;;1518682;77;752;-80
2023/05/01 03:15:28;;;;;;;;;;;22.40;58.20;;;;;;1500932;77;777;-81
2023/05/01 03:17:30;;;;;;;;;;;22.50;58.40;;;;;;1511228;77;1429;-80
2023/05/01 03:19:33;;;;;;;;;;;22.50;58.40;;;;;;1493559;77;1160;-81
2023/05/01 03:21:35;;;;;;;;;;;22.40;58.30;;;;;;1502112;77;744;-76
2023/05/01 03:23:37;;;;;;;;;;;22.40;58.20;;;;;;1521669;77;683;-80
2023/05/01 03:25:39;;;;;;;;;;;22.40;58.30;;;;;;1504028;77;794;-80
2023/05/01 03:27:41;;;;;;;;;;;22.40;58.20;;;;;;1499155;77;1937;-79
2023/05/01 03:29:43;;;;;;;;;;;22.40;58.40;;;;;;1502083;77;1205;-80
2023/05/01 03:31:45;;;;;;;;;;;22.40;58.40;;;;;;1510373;77;1464;-80
2023/05/01 03:33:47;;;;;;;;;;;22.50;58.50;;;;;;1510640;77;769;-80
2023/05/01 03:35:51;;;;;;;;;;;22.50;58.40;;;;;;1505195;77;739;-81
2023/05/01 03:37:53;;;;;;;;;;;22.50;58.20;;;;;;1467088;79;1181;-80
2023/05/01 03:39:54;;;;;;;;;;;22.50;58.30;;;;;;1499107;77;688;-80
2023/05/01 03:41:57;;;;;;;;;;;22.50;58.10;;;;;;1515146;77;806;-78
2023/05/01 03:43:59;;;;;;;;;;;22.50;58.10;;;;;;1497003;77;722;-80
2023/05/01 03:46:01;;;;;;;;;;;22.50;58.00;;;;;;1512210;77;793;-80
2023/05/01 03:48:03;;;;;;;;;;;22.50;57.90;;;;;;1506261;77;1937;-80
2023/05/01 03:50:06;;;;;;;;;;;22.50;57.80;;;;;;1516434;77;751;-80
2023/05/01 03:52:08;;;;;;;;;;;22.60;57.90;;;;;;1509284;77;773;-79
2023/05/01 03:54:10;;;;;;;;;;;22.50;57.80;;;;;;1514926;77;779;-80
2023/05/01 03:56:12;;;;;;;;;;;22.50;57.80;;;;;;1508895;77;774;-80
2023/05/01 03:58:14;;;;;;;;;;;22.60;57.90;;;;;;1502371;77;1443;-80
2023/05/01 04:00:15;;;;;;;;;;;22.60;57.80;;;;;;1508446;77;761;-80
2023/05/01 04:02:17;;;;;;;;;;;22.50;57.70;;;;;;1505864;77;742;-81
2023/05/01 04:04:19;;;;;;;;;;;22.60;57.60;;;;;;1499929;77;763;-79
2023/05/01 04:06:21;;;;;;;;;;;22.60;57.80;;;;;;1513648;77;1155;-80
2023/05/01 04:08:23;;;;;;;;;;;22.50;58.10;;;;;;1513396;72;2146;-69
2023/05/01 04:10:25;;;;;;;;;;;22.50;58.40;;;;;;1526828;76;703;-70
2023/05/01 04:12:27;;;;;;;;;;;22.50;58.50;;;;;;1564000;74;1505;-71
2023/05/01 04:14:29;;;;;;;;;;;22.50;58.40;;;;;;1549179;76;827;-70
2023/05/01 04:16:30;;;;;;;;;;;22.50;58.50;;;;;;1557546;76;765;-70
2023/05/01 04:18:32;;;;;;;;;;;22.40;58.50;;;;;;1560308;76;1279;-71
2023/05/01 04:20:34;;;;;;;;;;;22.50;59.00;;;;;;1569214;74;773;-70
2023/05/01 04:22:36;;;;;;;;;;;22.40;58.50;;;;;;1565660;75;773;-70
2023/05/01 04:24:38;;;;;;;;;;;22.30;58.50;;;;;;1559804;74;795;-70
2023/05/01 04:26:41;;;;;;;;;;;22.30;58.50;;;;;;1571500;74;1426;-70
2023/05/01 04:28:43;;;;;;;;;;;22.50;58.40;;;;;;1566596;74;1953;-71
2023/05/01 04:30:45;;;;;;;;;;;22.40;58.20;;;;;;1569861;74;747;-72
2023/05/01 04:32:47;;;;;;;;;;;22.50;58.30;;;;;;1573810;74;767;-70
2023/05/01 04:34:49;;;;;;;;;;;22.50;58.20;;;;;;1569479;74;742;-69
2023/05/01 04:36:51;;;;;;;;;;;22.50;58.20;;;;;;1559657;74;754;-70
2023/05/01 04:38:52;;;;;;;;;;;22.50;58.20;;;;;;1556905;74;1171;-70
2023/05/01 04:40:55;;;;;;;;;;;22.50;58.30;;;;;;1563757;74;1307;-69
2023/05/01 04:42:56;;;;;;;;;;;22.50;58.40;;;;;;1571328;74;794;-67
2023/05/01 04:45:01;;;;;;;;;;;22.40;58.80;;;;;;1566952;74;820;-65
2023/05/01 04:47:02;;;;;;;;;;;22.40;59.00;;;;;;1575711;74;1680;-70
2023/05/01 04:49:04;;;;;;;;;;;22.40;59.80;;;;;;1572953;74;1935;-71
2023/05/01 04:51:06;;;;;;;;;;;22.40;59.50;;;;;;1568981;74;750;-72
2023/05/01 04:53:08;;;;;;;;;;;22.30;59.40;;;;;;1579095;74;742;-72
2023/05/01 04:55:10;;;;;;;;;;;22.20;59.30;;;;;;1569040;74;1392;-72
2023/05/01 04:57:12;;;;;;;;;;;22.40;59.30;;;;;;1568367;74;770;-72
2023/05/01 04:59:14;;;;;;;;;;;22.30;59.50;;;;;;1565749;74;1269;-72
2023/05/01 05:01:15;;;;;;;;;;;22.20;59.30;;;;;;1559613;74;796;-71
2023/05/01 05:03:18;;;;;;;;;;;22.20;59.30;;;;;;1576293;74;765;-70
2023/05/01 05:05:20;;;;;;;;;;;22.30;59.30;;;;;;1578162;74;803;-72
2023/05/01 05:07:22;;;;;;;;;;;22.30;59.00;;;;;;1565236;74;827;-71
2023/05/01 05:09:24;;;;;;;;;;;22.30;59.00;;;;;;1576127;74;1946;-71
2023/05/01 05:11:26;;;;;;;;;;;22.30;58.80;;;;;;1573940;74;760;-69
2023/05/01 05:13:27;;;;;;;;;;;22.40;58.90;;;;;;1572104;74;733;-71
2023/05/01 05:15:29;;;;;;;;;;;22.30;58.80;;;;;;1564734;74;739;-71
2023/05/01 05:17:31;;;;;;;;;;;22.40;58.80;;;;;;1576025;74;712;-72
2023/05/01 05:19:33;;;;;;;;;;;22.30;58.90;;;;;;1570557;74;1241;-69
2023/05/01 05:21:36;;;;;;;;;;;22.30;58.90;;;;;;1575188;74;734;-70
2023/05/01 05:23:38;;;;;;;;;;;22.30;58.80;;;;;;1565407;74;1313;-71
2023/05/01 05:25:40;;;;;;;;;;;22.40;58.50;;;;;;1564155;74;808;-71
2023/05/01 05:27:42;;;;;;;;;;;22.40;58.50;;;;;;1565016;74;819;-71
2023/05/01 05:29:44;;;;;;;;;;;22.30;59.00;;;;;;1573464;74;1954;-71
2023/05/01 05:31:46;;;;;;;;;;;22.40;58.90;;;;;;1564543;74;756;-71
2023/05/01 05:33:47;;;;;;;;;;;22.30;58.90;;;;;;1567849;74;771;-70
2023/05/01 05:35:49;;;;;;;;;;;22.30;58.90;;;;;;1575209;74;749;-71
2023/05/01 05:37:51;;;;;;;;;;;22.30;58.90;;;;;;1565048;74;1423;-72
2023/05/01 05:39:53;;;;;;;;;;;22.40;58.90;;;;;;1575521;74;1151;-71
2023/05/01 05:41:55;;;;;;;;;;;22.30;58.90;;;;;;1575025;74;727;-72
2023/05/01 05:43:58;;;;;;;;;;;22.30;58.90;;;;;;1570929;74;809;-70
2023/05/01 05:46:00;;;;;;;;;;;22.40;58.90;;;;;;1574761;74;741;-71
2023/05/01 05:48:02;;;;;;;;;;;22.30;58.90;;;;;;1571725;74;772;-71
2023/05/01 05:50:06;;;;;;;;;;;22.40;58.80;;;;;;1571445;74;1947;-72
2023/05/01 05:52:08;;;;;;;;;;;22.30;58.50;;;;;;1572031;74;1426;-73
2023/05/01 05:54:10;;;;;;;;;;;22.40;58.40;;;;;;1577805;74;762;-71
2023/05/01 05:56:11;;;;;;;;;;;22.50;58.40;;;;;;1568992;74;786;-71
2023/05/01 05:58:18;;;;;;;;;;;22.40;58.20;;;;;;1571087;74;1186;-71
2023/05/01 06:00:17;;;;;;;;;;;22.40;58.10;;;;;;1568325;74;1592;-68
2023/05/01 06:02:19;;;;;;;;;;;22.50;58.20;;;;;;1570733;74;669;-69
2023/05/01 06:04:21;;;;;;;;;;;22.30;58.90;;;;;;1572308;74;743;-68
2023/05/01 06:06:23;;;;;;;;;;;22.30;59.00;;;;;;1570252;74;1412;-70
2023/05/01 06:08:25;;;;;;;;;;;22.30;58.90;;;;;;1567598;74;1170;-74
2023/05/01 06:10:27;;;;;;;;;;;22.30;58.80;;;;;;1565169;74;1948;-70
2023/05/01 06:12:28;;;;;;;;;;;22.30;58.90;;;;;;1568368;74;691;-71
2023/05/01 06:14:30;;;;;;;;;;;22.30;58.50;;;;;;1574592;74;739;-71
2023/05/01 06:16:33;;;;;;;;;;;22.30;58.90;;;;;;1562923;74;756;-69
2023/05/01 06:18:35;;;;;;;;;;;22.30;58.50;;;;;;1577128;74;1191;-70
2023/05/01 06:20:37;;;;;;;;;;;22.30;59.00;;;;;;1571196;74;1609;-68
2023/05/01 06:22:39;;;;;;;;;;;22.20;57.90;;;;;;1563786;74;659;-73
2023/05/01 06:24:41;;;;;;;;;;;22.20;57.00;;;;;;1570463;74;826;-69
2023/05/01 06:26:43;;;;;;;;;;;22.30;55.90;;;;;;1572854;74;763;-70
2023/05/01 06:28:45;;;;;;;;;;;22.40;55.10;;;;;;1568454;74;1959;-70
2023/05/01 06:30:47;;;;;;;;;;;22.30;54.40;;;;;;1565563;74;705;-71
2023/05/01 06:32:49;;;;;;;;;;;22.30;54.00;;;;;;1575289;74;1410;-69
2023/05/01 06:34:51;;;;;;;;;;;22.30;53.50;;;;;;1578867;74;741;-70
2023/05/01 06:36:52;;;;;;;;;;;22.30;53.00;;;;;;1571879;74;795;-70
2023/05/01 06:38:54;;;;;;;;;;;22.40;52.30;;;;;;1576223;74;1202;-70
2023/05/01 06:40:56;;;;;;;;;;;22.40;51.80;;;;;;1567681;74;807;-69
2023/05/01 06:42:58;;;;;;;;;;;22.40;51.50;;;;;;1577950;74;766;-70
2023/05/01 06:45:00;;;;;;;;;;;22.40;51.40;;;;;;1567227;74;651;-70
2023/05/01 06:47:02;;;;;;;;;;;22.40;51.00;;;;;;1571339;74;1289;-72
2023/05/01 06:49:04;;;;;;;;;;;22.40;50.60;;;;;;1578048;74;1927;-71
2023/05/01 06:51:06;;;;;;;;;;;22.30;50.10;;;;;;1575434;74;760;-69
2023/05/01 06:53:08;;;;;;;;;;;22.40;50.00;;;;;;1569081;74;750;-70
2023/05/01 06:55:11;;;;;;;;;;;22.30;49.70;;;;;;1566229;74;732;-70
2023/05/01 06:57:13;;;;;;;;;;;22.40;49.40;;;;;;1576604;74;743;-71
2023/05/01 06:59:15;;;;;;;;;;;22.30;49.00;;;;;;1573558;74;1184;-69
2023/05/01 07:01:17;;;;;;;;;;;22.30;49.00;;;;;;1562922;74;1430;-69
2023/05/01 07:03:19;;;;;;;;;;;22.20;48.50;;;;;;1569607;74;755;-70
2023/05/01 07:05:21;;;;;;;;;;;22.30;48.50;;;;;;1576843;74;753;-72
2023/05/01 07:07:23;;;;;;;;;;;22.30;48.40;;;;;;1562702;74;749;-67
2023/05/01 07:09:25;;;;;;;;;;;22.20;48.20;;;;;;1565717;74;1932;-70
2023/05/01 07:11:27;;;;;;;;;;;22.20;48.20;;;;;;1563499;74;749;-70
2023/05/01 07:13:28;;;;;;;;;;;22.20;47.70;;;;;;1566256;74;685;-70
2023/05/01 07:15:30;;;;;;;;;;;22.20;47.90;;;;;;1557957;74;1368;-69
2023/05/01 07:17:32;;;;;;;;;;;22.10;47.70;;;;;;1574777;74;1414;-71
2023/05/01 07:19:34;;;;;;;;;;;22.20;47.60;;;;;;1558135;74;1245;-70
2023/05/01 07:21:36;;;;;;;;;;;22.20;47.60;;;;;;1568191;74;1207;-70
2023/05/01 07:23:38;;;;;;;;;;;22.10;47.40;;;;;;1570612;74;1349;-70
2023/05/01 07:25:44;;;;;;;;;;;22.10;47.40;;;;;;1570726;74;1410;-69
2023/05/01 07:27:46;;;;;;;;;;;22.10;47.30;;;;;;1574239;74;1361;-70
2023/05/01 07:29:47;;;;;;;;;;;22.00;47.30;;;;;;1568217;74;1946;-69
2023/05/01 07:31:49;;;;;;;;;;;22.00;46.80;;;;;;1570083;74;794;-71
2023/05/01 07:33:52;;;;;;;;;;;22.00;47.10;;;;;;1562456;74;1305;-69
2023/05/01 07:35:53;;;;;;;;;;;22.00;47.10;;;;;;1579820;74;1371;-70
2023/05/01 07:37:55;;;;;;;;;;;22.00;47.00;;;;;;1566199;74;1138;-68
2023/05/01 07:39:57;;;;;;;;;;;21.90;46.90;;;;;;1569406;74;1154;-67
2023/05/01 07:41:59;;;;;;;;;;;22.00;46.80;;;;;;1564616;74;1484;-69
2023/05/01 07:44:01;;;;;;;;;;;22.00;46.70;;;;;;1565118;74;1405;-70
2023/05/01 07:46:04;;;;;;;;;;;21.90;46.70;;;;;;1563053;74;1380;-70
2023/05/01 07:48:06;;;;;;;;;;;21.90;46.50;;;;;;1565479;74;1412;-72
2023/05/01 07:50:10;;;;;;;;;;;21.80;46.50;;;;;;1567001;74;1943;-70
2023/05/01 07:52:14;;;;;;;;;;;21.90;46.60;;;;;;1569617;74;1380;-70
2023/05/01 07:54:20;;;;;;;;;;;21.90;46.20;;;;;;1567112;74;1379;-70
2023/05/01 07:56:20;;;;;;;;;;;21.80;46.10;;;;;;1560420;74;1601;-71
2023/05/01 07:58:22;;;;;;;;;;;21.80;46.30;;;;;;1574558;74;1358;-70
2023/05/01 08:00:23;;;;;;;;;;;21.80;46.30;;;;;;1566816;74;1478;-70
2023/05/01 08:02:26;;;;;;;;;;;21.80;46.00;;;;;;1562899;74;1416;-70
2023/05/01 08:04:28;;;;;;;;;;;21.80;46.10;;;;;;1564810;74;1356;-70
2023/05/01 08:06:30;;;;;;;;;;;21.80;45.90;;;;;;1562185;74;1248;-70
2023/05/01 08:08:32;;;;;;;;;;;21.70;46.00;;;;;;1567293;74;1380;-69
2023/05/01 08:10:34;;;;;;;;;;;21.80;46.10;;;;;;1570862;74;1932;-70
2023/05/01 08:12:36;;;;;;;;;;;21.70;46.00;;;;;;1561193;74;1479;-69
2023/05/01 08:14:38;;;;;;;;;;;21.70;46.00;;;;;;1575076;74;1387;-70
2023/05/01 08:16:40;;;;;;;;;;;21.70;45.90;;;;;;1574417;74;1358;-71
2023/05/01 08:18:42;;;;;;;;;;;21.70;45.80;;;;;;1570805;74;1404;-70
2023/05/01 08:20:44;;;;;;;;;;;21.70;46.00;;;;;;1556092;74;1364;-72
2023/05/01 08:22:46;;;;;;;;;;;21.70;46.00;;;;;;1561976;74;1369;-69
2023/05/01 08:24:48;;;;;;;;;;;21.70;46.00;;;;;;1566011;74;1377;-70
2023/05/01 08:26:50;;;;;;;;;;;21.70;46.00;;;;;;1570758;74;1436;-70
2023/05/01 08:28:52;;;;;;;;;;;21.70;46.00;;;;;;1560062;74;1369;-70
2023/05/01 08:30:54;;;;;;;;;;;21.70;46.00;;;;;;1572613;74;1935;-71
2023/05/01 08:32:55;;;;;;;;;;;21.70;45.80;;;;;;1581043;74;1103;-69
2023/05/01 08:34:57;;;;;;;;;;;21.70;46.00;;;;;;1567593;74;1450;-68
2023/05/01 08:36:59;;;;;;;;;;;21.70;46.00;;;;;;1572993;74;1377;-70
2023/05/01 08:39:02;;;;;;;;;;;21.60;46.00;;;;;;1558308;74;1254;-69
2023/05/01 08:41:04;;;;;;;;;;;21.60;46.00;;;;;;1573299;74;1574;-69
2023/05/01 08:43:06;;;;;;;;;;;21.60;45.90;;;;;;1577049;74;1483;-69
2023/05/01 08:45:08;;;;;;;;;;;21.60;45.90;;;;;;1571754;74;1354;-69
2023/05/01 08:47:14;;;;;;;;;;;21.60;46.00;;;;;;1570542;74;1373;-69
2023/05/01 08:49:16;;;;;;;;;;;21.60;45.90;;;;;;1569298;74;1202;-70
2023/05/01 08:51:19;;;;;;;;;;;21.60;46.00;;;;;;1561832;74;1941;-69
2023/05/01 08:53:20;;;;;;;;;;;21.60;45.90;;;;;;1572803;74;1380;-69
2023/05/01 08:55:22;;;;;;;;;;;21.60;46.00;;;;;;1570786;74;1638;-70
2023/05/01 08:57:24;;;;;;;;;;;21.60;46.10;;;;;;1569047;74;1372;-68
2023/05/01 08:59:27;;;;;;;;;;;21.60;46.00;;;;;;1571468;74;1381;-68
2023/05/01 09:01:31;;;;;;;;;;;21.50;46.30;;;;;;1574112;74;1358;-66
2023/05/01 09:03:32;;;;;;;;;;;21.50;48.00;;;;;;1570769;74;1510;-65
2023/05/01 09:05:34;;;;;;;;;;;21.50;49.10;;;;;;1560328;74;1392;-65
2023/05/01 09:07:36;;;;;;;;;;;21.50;49.90;;;;;;1572017;74;1384;-65
2023/05/01 09:09:38;;;;;;;;;;;21.50;50.60;;;;;;1571726;74;1425;-65
2023/05/01 09:11:40;;;;;;;;;;;21.50;51.30;;;;;;1573758;74;1932;-66
2023/05/01 09:13:42;;;;;;;;;;;21.50;51.80;;;;;;1576037;74;1440;-65
2023/05/01 09:15:44;;;;;;;;;;;21.60;52.30;;;;;;1566689;74;1387;-66
2023/05/01 09:17:46;;;;;;;;;;;21.50;52.40;;;;;;1571224;74;1221;-66
2023/05/01 09:19:48;;;;;;;;;;;21.60;52.70;;;;;;1573015;74;1437;-67
2023/05/01 09:21:49;;;;;;;;;;;21.60;54.70;;;;;;1574431;73;1383;-66
2023/05/01 09:23:52;;;;;;;;;;;21.70;54.10;;;;;;1567071;74;1434;-66
2023/05/01 09:25:54;;;;;;;;;;;21.70;54.40;;;;;;1572439;74;1392;-66
2023/05/01 09:27:56;;;;;;;;;;;21.70;54.50;;;;;;1559731;74;1218;-66
2023/05/01 09:29:58;;;;;;;;;;;21.70;54.60;;;;;;1574916;74;1943;-64
2023/05/01 09:32:01;;;;;;;;;;;21.80;54.70;;;;;;1570480;74;1258;-69
2023/05/01 09:34:04;;;;;;;;;;;21.70;55.30;;;;;;1573756;74;1621;-66
2023/05/01 09:36:07;;;;;;;;;;;21.70;56.70;;;;;;1575098;74;1382;-66
2023/05/01 09:38:09;;;;;;;;;;;21.80;56.10;;;;;;1568027;74;1373;-68
2023/05/01 09:40:11;;;;;;;;;;;21.70;57.60;;;;;;1568815;74;1370;-69
2023/05/01 09:42:13;;;;;;;;;;;21.70;56.90;;;;;;1572130;74;1107;-66
2023/05/01 09:44:20;;;;;;;;;;;21.70;57.50;;;;;;1574437;74;1486;-67
2023/05/01 09:46:23;;;;;;;;;;;21.70;57.40;;;;;;1577443;74;1369;-65
2023/05/01 09:48:25;;;;;;;;;;;21.70;57.20;;;;;;1573094;74;1309;-66
2023/05/01 09:50:31;;;;;;;;;;;21.70;57.70;;;;;;1578190;74;1920;-67
2023/05/01 09:52:33;;;;;;;;;;;21.80;57.30;;;;;;1571639;74;1378;-66
2023/05/01 09:54:35;;;;;;;;;;;21.70;57.00;;;;;;1572652;74;1225;-67
2023/05/01 09:56:39;;;;;;;;;;;21.70;57.50;;;;;;1575236;74;1367;-67
2023/05/01 09:58:41;;;;;;;;;;;21.70;57.50;;;;;;1571931;74;1806;-67
2023/05/01 10:00:48;;;;;;;;;;;21.70;57.10;;;;;;1567756;74;1408;-66
2023/05/01 10:02:50;;;;;;;;;;;21.70;57.50;;;;;;1570322;74;1216;-66
2023/05/01 10:04:54;;;;;;;;;;;21.70;57.20;;;;;;1576187;74;1448;-67
2023/05/01 10:06:56;;;;;;;;;;;21.70;58.00;;;;;;1568533;74;1742;-66
2023/05/01 10:09:17;;;;;;;;;;;21.70;58.00;;;;;;1568092;74;1226;-65
2023/05/01 10:11:20;;;;;;;;;;;21.70;57.70;;;;;;1623881;72;1936;-66
2023/05/01 10:13:22;;;;;;;;;;;21.80;57.60;;;;;;1618583;72;1379;-66
2023/05/01 10:15:26;;;;;;;;;;;21.80;57.50;;;;;;1625380;72;1193;-66
2023/05/01 10:17:28;;;;;;;;;;;21.80;57.50;;;;;;1624065;72;1602;-66
2023/05/01 10:19:30;;;;;;;;;;;21.80;57.30;;;;;;1624997;72;1349;-66
2023/05/01 10:21:32;;;;;;;;;;;21.80;57.30;;;;;;1611139;72;1492;-65
2023/05/01 10:23:34;;;;;;;;;;;21.90;57.30;;;;;;1611502;72;1126;-64
2023/05/01 10:25:36;;;;;;;;;;;21.80;57.10;;;;;;1617288;72;1079;-67
2023/05/01 10:27:39;;;;;;;;;;;21.80;57.00;;;;;;1605663;73;1108;-66
2023/05/01 10:29:41;;;;;;;;;;;21.90;57.10;;;;;;1618763;72;1379;-65
2023/05/01 10:31:43;;;;;;;;;;;21.90;57.10;;;;;;1616683;72;1922;-65
2023/05/01 10:33:47;;;;;;;;;;;21.90;57.00;;;;;;1614846;72;1587;-66
2023/05/01 10:35:49;;;;;;;;;;;21.90;56.90;;;;;;1612122;72;1387;-67
2023/05/01 10:37:58;;;;;;;;;;;21.90;56.70;;;;;;1618375;72;1384;-66
2023/05/01 10:40:00;;;;;;;;;;;22.00;56.50;;;;;;1613605;72;1383;-66
2023/05/01 10:42:07;;;;;;;;;;;21.90;56.40;;;;;;1618128;72;1386;-67
2023/05/01 10:44:25;;;;;;;;;;;22.00;56.50;;;;;;1613341;72;1356;-67
2023/05/01 10:46:26;;;;;;;;;;;22.00;56.50;;;;;;1619938;72;1364;-66
2023/05/01 10:48:33;;;;;;;;;;;21.90;56.50;;;;;;1617367;72;1200;-65
2023/05/01 10:50:35;;;;;;;;;;;21.50;56.30;;;;;;1599473;72;1925;-67
2023/05/01 10:52:41;;;;;;;;;;;21.90;56.50;;;;;;1614172;72;1368;-66
2023/05/01 10:54:43;;;;;;;;;;;21.90;56.50;;;;;;1590029;72;1669;-66
2023/05/01 10:56:45;;;;;;;;;;;21.90;56.50;;;;;;1622674;72;1467;-67
2023/05/01 10:58:50;;;;;;;;;;;21.90;56.50;;;;;;1609977;72;1382;-64
2023/05/01 11:00:53;;;;;;;;;;;22.00;56.40;;;;;;1610650;72;1463;-66
2023/05/01 11:03:13;;;;;;;;;;;21.90;56.30;;;;;;1612245;72;1379;-66
2023/05/01 11:05:15;;;;;;;;;;;22.00;56.20;;;;;;1624240;72;1415;-67
2023/05/01 11:07:17;;;;;;;;;;;22.00;56.10;;;;;;1621761;72;1386;-64
2023/05/01 11:09:39;;;;;;;;;;;21.90;56.30;;;;;;1616228;72;1402;-64
2023/05/01 11:11:46;;;;;;;;;;;21.90;57.30;;;;;;1614520;72;1944;-66
2023/05/01 11:14:00;;;;;;;;;;;21.90;57.10;;;;;;1618004;72;1373;-66
2023/05/01 11:16:04;;;;;;;;;;;21.90;57.40;;;;;;1617916;72;1229;-66
2023/05/01 11:18:06;;;;;;;;;;;21.90;57.30;;;;;;1613365;72;1407;-65
2023/05/01 11:20:12;;;;;;;;;;;21.90;57.30;;;;;;1617786;72;1397;-66
2023/05/01 11:22:14;;;;;;;;;;;21.90;57.30;;;;;;1604333;72;1385;-66
2023/05/01 11:24:20;;;;;;;;;;;22.00;57.50;;;;;;1606349;72;1380;-66
2023/05/01 11:26:21;;;;;;;;;;;21.90;57.90;;;;;;1609369;73;1378;-66
2023/05/01 11:28:23;;;;;;;;;;;21.90;58.30;;;;;;1607854;72;1400;-66
2023/05/01 11:30:25;;;;;;;;;;;22.00;59.20;;;;;;1611424;72;1397;-66
2023/05/01 11:32:28;;;;;;;;;;;22.00;59.80;;;;;;1606076;73;1963;-66
2023/05/01 11:34:32;;;;;;;;;;;21.90;60.30;;;;;;1607866;72;1334;-66
2023/05/01 11:36:48;;;;;;;;;;;22.00;61.00;;;;;;1596584;73;1379;-65
2023/05/01 11:38:55;;;;;;;;;;;22.00;60.70;;;;;;1601077;72;1248;-66
2023/05/01 11:40:54;;;;;;;;;;;22.00;60.80;;;;;;1607685;72;1573;-66
2023/05/01 11:43:03;;;;;;;;;;;22.00;60.70;;;;;;1613297;72;1330;-66
2023/05/01 11:45:06;;;;;;;;;;;21.90;60.60;;;;;;1611278;72;1239;-65
2023/05/01 11:47:08;;;;;;;;;;;22.00;60.50;;;;;;1603504;72;1292;-66
2023/05/01 11:49:10;;;;;;;;;;;22.00;60.50;;;;;;1613909;72;1190;-64
2023/05/01 11:51:12;;;;;;;;;;;22.00;60.40;;;;;;1617060;72;1938;-65
2023/05/01 11:53:14;;;;;;;;;;;22.10;60.40;;;;;;1602157;72;1446;-66
2023/05/01 11:55:16;;;;;;;;;;;22.00;60.20;;;;;;1606843;72;1191;-66
2023/05/01 11:57:19;;;;;;;;;;;22.00;60.10;;;;;;1614428;72;1416;-65
2023/05/01 11:59:20;;;;;;;;;;;22.00;60.10;;;;;;1608840;72;1429;-66
2023/05/01 12:01:24;;;;;;;;;;;22.10;60.10;;;;;;1613515;72;1304;-66
2023/05/01 12:03:27;;;;;;;;;;;22.10;60.00;;;;;;1600454;72;1255;-66
2023/05/01 12:05:29;;;;;;;;;;;22.10;60.00;;;;;;1607968;72;1230;-66
2023/05/01 12:07:32;;;;;;;;;;;22.10;60.00;;;;;;1607615;72;1386;-66
2023/05/01 12:09:34;;;;;;;;;;;22.10;60.00;;;;;;1611946;72;1300;-65